Time;durP1;ratioP1;P1;durP2;ratioP2;P2;SDS_P1;SDS_P2;PMS_P1;PMS_P2;Temp;Humidity;BMP_temperature;BMP_pressure;BME280_temperature;BME280_humidity;BME280_pressure;Samples;Min_cycle;Max_cycle;Signal;HPM_P1;HPM_P2
2023/11/13 00:00:41;;;;;;;29.25;23.48;;;;;;;;;;12753239;22;20633;-68
2023/11/13 00:05:38;;;;;;;32.83;23.63;;;;;;;;;;12759578;22;20369;-68
2023/11/13 00:10:35;;;;;;;28.20;22.20;;;;;;;;;;12757915;22;20035;-69
2023/11/13 00:15:32;;;;;;;32.50;22.63;;;;;;;;;;12758601;22;20023;-70
2023/11/13 00:20:29;;;;;;;33.00;22.90;;;;;;;;;;12755429;22;20019;-71
2023/11/13 00:25:25;;;;;;;28.98;21.92;;;;;;;;;;12762833;22;20023;-70
2023/11/13 00:30:22;;;;;;;26.75;20.85;;;;;;;;;;12762705;22;20028;-70
2023/11/13 00:35:18;;;;;;;37.35;22.85;;;;;;;;;;12762587;22;20024;-71
2023/11/13 00:40:16;;;;;;;34.55;23.25;;;;;;;;;;12760665;22;20155;-72
2023/11/13 00:45:12;;;;;;;28.55;21.08;;;;;;;;;;12761265;22;20421;-70
2023/11/13 00:50:11;;;;;;;30.70;23.48;;;;;;;;;;12760959;22;20085;-71
2023/11/13 00:55:09;;;;;;;29.98;21.52;;;;;;;;;;12760187;22;20024;-71
2023/11/13 01:00:08;;;;;;;28.25;20.88;;;;;;;;;;12762093;22;20016;-71
2023/11/13 01:05:05;;;;;;;27.83;21.05;;;;;;;;;;12756075;22;20051;-69
2023/11/13 01:10:01;;;;;;;32.63;22.20;;;;;;;;;;12762830;22;20020;-70
2023/11/13 01:14:58;;;;;;;29.05;20.08;;;;;;;;;;12760877;22;20027;-70
2023/11/13 01:19:54;;;;;;;25.27;20.83;;;;;;;;;;12760411;22;20339;-70
2023/11/13 01:24:50;;;;;;;27.95;21.27;;;;;;;;;;12754655;22;20023;-69
2023/11/13 01:29:47;;;;;;;30.98;22.20;;;;;;;;;;12758573;22;20473;-70
2023/11/13 01:34:43;;;;;;;27.77;20.30;;;;;;;;;;12760279;22;20568;-70
2023/11/13 01:39:39;;;;;;;33.83;21.23;;;;;;;;;;12759989;22;20023;-70
2023/11/13 01:44:36;;;;;;;23.08;19.83;;;;;;;;;;12760367;22;20085;-70
2023/11/13 01:49:32;;;;;;;31.88;20.95;;;;;;;;;;12760304;22;20023;-70
2023/11/13 01:54:29;;;;;;;29.15;20.63;;;;;;;;;;12759824;22;20085;-70
2023/11/13 01:59:26;;;;;;;27.58;21.15;;;;;;;;;;12760334;22;20046;-70
2023/11/13 02:04:23;;;;;;;32.08;20.08;;;;;;;;;;12759461;22;20412;-70
2023/11/13 02:09:20;;;;;;;25.63;20.73;;;;;;;;;;12669445;22;20106;-69
2023/11/13 02:14:17;;;;;;;26.70;18.40;;;;;;;;;;12808718;22;20020;-68
2023/11/13 02:19:16;;;;;;;26.67;19.67;;;;;;;;;;12828781;22;20471;-71
2023/11/13 02:24:13;;;;;;;24.42;18.20;;;;;;;;;;12880750;22;20052;-71
2023/11/13 02:29:10;;;;;;;33.30;18.77;;;;;;;;;;12877862;22;20083;-71
2023/11/13 02:34:06;;;;;;;33.03;20.17;;;;;;;;;;12886407;22;20635;-70
2023/11/13 02:39:03;;;;;;;24.65;20.25;;;;;;;;;;12884618;22;20482;-69
2023/11/13 02:43:59;;;;;;;29.25;20.50;;;;;;;;;;12880751;22;20029;-69
2023/11/13 02:48:55;;;;;;;31.23;20.40;;;;;;;;;;12881735;22;20023;-69
2023/11/13 02:53:52;;;;;;;24.13;19.40;;;;;;;;;;12886246;22;20027;-68
2023/11/13 02:58:48;;;;;;;27.90;20.50;;;;;;;;;;12883301;22;20030;-69
2023/11/13 03:03:45;;;;;;;28.60;20.48;;;;;;;;;;12882001;22;20080;-69
2023/11/13 03:08:43;;;;;;;25.02;19.58;;;;;;;;;;12882044;22;20034;-69
2023/11/13 03:13:42;;;;;;;24.80;20.08;;;;;;;;;;12876694;22;20682;-68
2023/11/13 03:18:38;;;;;;;30.92;20.23;;;;;;;;;;12881765;22;20859;-69
2023/11/13 03:23:34;;;;;;;27.73;19.65;;;;;;;;;;12880634;22;20084;-68
2023/11/13 03:28:31;;;;;;;25.77;19.48;;;;;;;;;;12882714;22;20495;-70
2023/11/13 03:33:27;;;;;;;29.95;19.75;;;;;;;;;;12879263;22;20027;-70
2023/11/13 03:38:23;;;;;;;27.38;20.77;;;;;;;;;;12885301;22;20420;-70
2023/11/13 03:43:20;;;;;;;25.27;20.13;;;;;;;;;;12880329;22;20026;-69
2023/11/13 03:48:16;;;;;;;31.00;21.92;;;;;;;;;;12882207;22;20343;-69
2023/11/13 03:53:12;;;;;;;29.83;21.58;;;;;;;;;;12884312;22;20030;-69
2023/11/13 03:58:09;;;;;;;26.48;20.45;;;;;;;;;;12884991;22;20023;-70
2023/11/13 04:03:05;;;;;;;28.80;22.38;;;;;;;;;;12880205;22;20490;-69
2023/11/13 04:08:01;;;;;;;30.40;22.30;;;;;;;;;;12882568;22;20030;-68
2023/11/13 04:12:58;;;;;;;31.15;22.35;;;;;;;;;;12854903;22;20031;-69
2023/11/13 04:17:55;;;;;;;29.10;21.25;;;;;;;;;;12877821;22;20076;-69
2023/11/13 04:22:52;;;;;;;33.08;22.30;;;;;;;;;;12878596;22;20042;-68
2023/11/13 04:27:48;;;;;;;32.15;21.83;;;;;;;;;;12878345;22;20071;-69
2023/11/13 04:32:45;;;;;;;31.42;22.02;;;;;;;;;;12883130;22;20019;-71
2023/11/13 04:37:41;;;;;;;35.45;21.58;;;;;;;;;;12882401;22;20129;-71
2023/11/13 04:42:38;;;;;;;31.92;23.45;;;;;;;;;;12873672;22;20087;-71
2023/11/13 04:47:34;;;;;;;30.70;21.50;;;;;;;;;;12881201;22;20674;-71
2023/11/13 04:52:31;;;;;;;33.58;22.90;;;;;;;;;;12882237;22;20023;-71
2023/11/13 04:57:28;;;;;;;26.58;21.48;;;;;;;;;;12880609;22;20042;-71
2023/11/13 05:02:24;;;;;;;25.20;20.85;;;;;;;;;;12880733;22;20079;-71
2023/11/13 05:07:20;;;;;;;31.30;22.45;;;;;;;;;;12883266;22;20029;-71
2023/11/13 05:12:17;;;;;;;29.85;21.40;;;;;;;;;;12882921;22;20027;-71
2023/11/13 05:17:13;;;;;;;30.23;20.98;;;;;;;;;;12882315;22;20026;-72
2023/11/13 05:22:10;;;;;;;29.27;22.73;;;;;;;;;;12873445;22;20019;-73
2023/11/13 05:27:10;;;;;;;30.10;22.30;;;;;;;;;;12876485;22;20027;-71
2023/11/13 05:32:06;;;;;;;28.58;20.63;;;;;;;;;;12881807;22;20022;-71
2023/11/13 05:37:03;;;;;;;26.80;20.60;;;;;;;;;;12882923;22;20049;-71
2023/11/13 05:41:59;;;;;;;25.65;19.90;;;;;;;;;;12882377;22;20052;-72
2023/11/13 05:46:56;;;;;;;25.50;20.40;;;;;;;;;;12882422;22;20072;-72
2023/11/13 05:51:52;;;;;;;26.50;20.58;;;;;;;;;;12853956;22;20030;-71
2023/11/13 05:56:48;;;;;;;22.60;18.55;;;;;;;;;;12877034;22;20023;-71
2023/11/13 06:01:45;;;;;;;26.92;18.90;;;;;;;;;;12883909;22;20076;-71
2023/11/13 06:06:43;;;;;;;28.52;20.13;;;;;;;;;;12882054;22;20034;-71
2023/11/13 06:11:40;;;;;;;21.15;17.73;;;;;;;;;;12833750;22;1167721;-71
2023/11/13 06:16:36;;;;;;;20.40;18.20;;;;;;;;;;12885996;22;20030;-71
2023/11/13 06:21:33;;;;;;;23.45;18.90;;;;;;;;;;12886862;22;20016;-74
2023/11/13 06:26:30;;;;;;;25.10;18.30;;;;;;;;;;12877029;22;20399;-74
2023/11/13 08:47:16;;;;;;;;;;;;;;;;;;;;;
2023/11/13 09:04:26;;;;;;;;;;;;;;;;;;;;;
2023/11/13 14:16:27;;;;;;;10.90;6.88;;;;;;;;;;12817639;22;20019;-74
2023/11/13 14:21:24;;;;;;;8.25;7.40;;;;;;;;;;12855222;22;20338;-74
2023/11/13 14:26:21;;;;;;;8.48;7.65;;;;;;;;;;12859123;22;20171;-74
2023/11/13 14:36:49;;;;;;;10.15;8.05;;;;;;;;;;12755411;22;20023;-74
2023/11/13 14:41:47;;;;;;;10.15;9.15;;;;;;;;;;12818430;22;20030;-74
2023/11/13 14:46:43;;;;;;;11.63;9.30;;;;;;;;;;12823061;22;20030;-74
2023/11/13 14:51:39;;;;;;;12.57;9.40;;;;;;;;;;12822718;22;20636;-74
2023/11/13 14:56:36;;;;;;;13.43;9.07;;;;;;;;;;12822524;22;20080;-74
2023/11/13 15:07:20;;;;;;;10.68;9.55;;;;;;;;;;12834353;22;20101;-73
2023/11/13 15:12:16;;;;;;;20.85;10.60;;;;;;;;;;12806728;22;20053;-73
2023/11/13 15:17:13;;;;;;;12.48;11.27;;;;;;;;;;12819046;22;20023;-71
2023/11/13 15:22:11;;;;;;;12.38;10.98;;;;;;;;;;12819413;22;20027;-72
2023/11/13 15:27:07;;;;;;;13.00;11.60;;;;;;;;;;12818152;22;20464;-69
2023/11/13 15:32:06;;;;;;;14.80;11.38;;;;;;;;;;12820814;22;20026;-70
2023/11/13 15:37:02;;;;;;;13.02;11.77;;;;;;;;;;12821980;22;20027;-69
2023/11/13 15:41:59;;;;;;;15.55;11.85;;;;;;;;;;12810819;22;20460;-69
2023/11/13 15:46:55;;;;;;;12.13;10.88;;;;;;;;;;12821340;22;20030;-69
2023/11/13 15:51:51;;;;;;;12.48;11.13;;;;;;;;;;12821132;22;20023;-70
2023/11/13 15:56:48;;;;;;;12.70;11.43;;;;;;;;;;12819771;22;20019;-70
2023/11/13 16:01:44;;;;;;;15.98;12.00;;;;;;;;;;12814511;22;20184;-71
2023/11/13 16:07:05;;;;;;;13.32;11.93;;;;;;;;;;12816461;22;20027;-70
2023/11/13 16:12:01;;;;;;;13.95;11.52;;;;;;;;;;12817630;22;20655;-70
2023/11/13 16:16:58;;;;;;;12.98;11.68;;;;;;;;;;12820019;22;20415;-70
2023/11/13 16:21:55;;;;;;;11.15;10.15;;;;;;;;;;12820705;22;20046;-70
2023/11/13 16:26:52;;;;;;;13.27;10.70;;;;;;;;;;12821896;22;20035;-70
2023/11/13 16:31:49;;;;;;;14.70;10.88;;;;;;;;;;12815596;22;20102;-70
2023/11/13 16:36:47;;;;;;;11.27;10.18;;;;;;;;;;12820312;22;20047;-69
2023/11/13 16:41:43;;;;;;;12.70;11.35;;;;;;;;;;12818980;22;20104;-69
2023/11/13 16:46:40;;;;;;;12.60;11.40;;;;;;;;;;12820650;22;20026;-68
2023/11/13 16:51:36;;;;;;;13.68;12.35;;;;;;;;;;12821165;22;20030;-69
2023/11/13 16:56:37;;;;;;;15.75;12.48;;;;;;;;;;12815429;22;20027;-70
2023/11/13 17:01:35;;;;;;;12.40;11.30;;;;;;;;;;12816551;22;20069;-69
2023/11/13 17:06:32;;;;;;;12.20;11.00;;;;;;;;;;12824128;22;20023;-70
2023/11/13 17:11:28;;;;;;;12.75;11.38;;;;;;;;;;12822691;22;20467;-70
2023/11/13 17:16:26;;;;;;;12.35;11.15;;;;;;;;;;12824210;22;20047;-69
2023/11/13 17:21:37;;;;;;;12.13;10.93;;;;;;;;;;12822872;22;20027;-70
2023/11/13 17:26:48;;;;;;;11.57;10.45;;;;;;;;;;12825363;22;20041;-70
2023/11/13 17:31:44;;;;;;;14.13;10.70;;;;;;;;;;12857559;22;20046;-70
2023/11/13 17:36:41;;;;;;;11.93;10.63;;;;;;;;;;12890155;22;20494;-70
2023/11/13 17:41:37;;;;;;;13.30;10.55;;;;;;;;;;12886362;22;20023;-70
2023/11/13 17:46:36;;;;;;;11.32;10.23;;;;;;;;;;12880913;22;20430;-71
2023/11/13 17:51:34;;;;;;;9.93;8.95;;;;;;;;;;12908654;22;20034;-70
2023/11/13 17:56:31;;;;;;;9.13;8.18;;;;;;;;;;12884499;22;20113;-70
2023/11/13 18:01:27;;;;;;;9.02;8.25;;;;;;;;;;12883672;22;20047;-71
2023/11/13 18:06:29;;;;;;;10.98;7.88;;;;;;;;;;12885069;22;20023;-71
2023/11/13 18:11:25;;;;;;;8.82;8.00;;;;;;;;;;12880650;22;20023;-71
2023/11/13 18:16:22;;;;;;;8.07;7.38;;;;;;;;;;12885012;22;20077;-71
2023/11/13 18:21:18;;;;;;;8.50;7.70;;;;;;;;;;12880545;22;20033;-70
2023/11/13 18:26:15;;;;;;;8.52;7.63;;;;;;;;;;12855907;22;20379;-70
2023/11/13 18:31:11;;;;;;;9.60;7.45;;;;;;;;;;12878706;22;20072;-70
2023/11/13 18:36:08;;;;;;;9.60;7.75;;;;;;;;;;12884602;22;20023;-70
2023/11/13 18:41:04;;;;;;;9.68;7.75;;;;;;;;;;12856840;22;20088;-70
2023/11/13 18:46:03;;;;;;;9.05;7.30;;;;;;;;;;12881132;22;20072;-70
2023/11/13 18:51:02;;;;;;;9.43;7.35;;;;;;;;;;12883090;22;20487;-71
2023/11/13 18:55:58;;;;;;;7.70;6.90;;;;;;;;;;12884643;22;20057;-71
2023/11/13 19:00:55;;;;;;;6.78;6.15;;;;;;;;;;12885183;22;20019;-71
2023/11/13 19:05:51;;;;;;;9.27;6.20;;;;;;;;;;12882825;22;20030;-72
2023/11/13 19:10:47;;;;;;;8.90;6.60;;;;;;;;;;12877511;22;20555;-70
2023/11/13 19:15:44;;;;;;;13.40;7.15;;;;;;;;;;12876078;22;20029;-71
2023/11/13 19:20:42;;;;;;;11.90;8.00;;;;;;;;;;12881846;22;20471;-71
2023/11/13 19:25:38;;;;;;;14.07;7.25;;;;;;;;;;12883917;22;20072;-71
2023/11/13 19:30:36;;;;;;;12.18;6.03;;;;;;;;;;12884237;22;20367;-71
2023/11/13 19:35:35;;;;;;;13.90;7.15;;;;;;;;;;12884628;22;20398;-71
2023/11/13 19:40:31;;;;;;;10.68;6.32;;;;;;;;;;12883707;22;20395;-71
2023/11/13 19:45:28;;;;;;;18.33;7.18;;;;;;;;;;12884394;22;20025;-71
2023/11/13 19:50:27;;;;;;;22.10;7.82;;;;;;;;;;12884189;22;20402;-71
2023/11/13 19:55:24;;;;;;;12.07;7.07;;;;;;;;;;12884576;22;20419;-72
2023/11/13 20:00:20;;;;;;;19.90;7.57;;;;;;;;;;12885116;22;20517;-72
2023/11/13 20:05:17;;;;;;;11.73;6.43;;;;;;;;;;12884804;22;20450;-71
2023/11/13 20:10:13;;;;;;;11.65;7.07;;;;;;;;;;12885310;22;20076;-71
2023/11/13 20:15:10;;;;;;;17.45;7.57;;;;;;;;;;12884914;22;20034;-72
2023/11/13 20:20:09;;;;;;;18.33;7.65;;;;;;;;;;12884790;22;20129;-70
2023/11/13 20:25:06;;;;;;;17.75;8.07;;;;;;;;;;12878659;22;20624;-71
2023/11/13 20:30:05;;;;;;;16.77;8.02;;;;;;;;;;12876652;22;20034;-71
2023/11/13 20:35:02;;;;;;;22.10;8.70;;;;;;;;;;12872478;22;20042;-72
2023/11/13 20:39:59;;;;;;;17.13;7.90;;;;;;;;;;12883118;22;20015;-69
2023/11/13 20:44:55;;;;;;;19.30;7.45;;;;;;;;;;12886802;22;20486;-69
2023/11/13 20:49:51;;;;;;;22.77;7.88;;;;;;;;;;12885321;22;20026;-69
2023/11/13 20:54:48;;;;;;;21.80;8.32;;;;;;;;;;12885804;22;20034;-68
2023/11/13 20:59:45;;;;;;;20.98;9.18;;;;;;;;;;12886044;22;20648;-67
2023/11/13 21:04:41;;;;;;;22.88;8.57;;;;;;;;;;12886781;22;20064;-67
2023/11/13 21:09:38;;;;;;;23.73;8.60;;;;;;;;;;12886646;22;20464;-67
2023/11/13 21:14:34;;;;;;;22.90;9.40;;;;;;;;;;12887052;22;20079;-68
2023/11/13 21:19:31;;;;;;;22.45;8.75;;;;;;;;;;12886463;22;20031;-68
2023/11/13 21:24:28;;;;;;;22.45;8.25;;;;;;;;;;12887381;22;20047;-69
2023/11/13 21:29:24;;;;;;;21.75;8.80;;;;;;;;;;12881420;22;20037;-69
2023/11/13 21:34:20;;;;;;;20.52;8.20;;;;;;;;;;12881494;22;20049;-69
2023/11/13 21:39:17;;;;;;;26.55;8.65;;;;;;;;;;12886850;22;20023;-69
2023/11/13 21:44:13;;;;;;;16.13;7.30;;;;;;;;;;12885513;22;20019;-67
2023/11/13 21:49:10;;;;;;;15.05;6.70;;;;;;;;;;12887159;22;20031;-67
2023/11/13 21:54:06;;;;;;;23.50;7.05;;;;;;;;;;12886092;22;20027;-67
2023/11/13 21:59:02;;;;;;;15.60;6.43;;;;;;;;;;12886269;22;20360;-67
2023/11/13 22:03:59;;;;;;;9.75;6.68;;;;;;;;;;12887037;22;20359;-67
2023/11/13 22:08:55;;;;;;;23.77;6.57;;;;;;;;;;12885936;22;20019;-68
2023/11/13 22:13:52;;;;;;;18.60;7.63;;;;;;;;;;12886107;22;20027;-67
2023/11/13 22:18:48;;;;;;;19.63;7.18;;;;;;;;;;12885671;22;20042;-67
2023/11/13 22:23:47;;;;;;;20.33;7.65;;;;;;;;;;12885214;22;20023;-68
2023/11/13 22:28:44;;;;;;;20.95;8.10;;;;;;;;;;12886088;22;20179;-69
2023/11/13 22:33:40;;;;;;;17.98;7.55;;;;;;;;;;12885909;22;20028;-70
2023/11/13 22:38:36;;;;;;;16.45;6.78;;;;;;;;;;12885557;22;20471;-67
2023/11/13 22:43:33;;;;;;;27.67;7.47;;;;;;;;;;12885622;22;20029;-70
2023/11/13 22:48:29;;;;;;;24.95;7.78;;;;;;;;;;12886329;22;20520;-70
2023/11/13 22:53:26;;;;;;;17.35;6.78;;;;;;;;;;12885865;22;20030;-66
2023/11/13 22:58:22;;;;;;;24.77;6.47;;;;;;;;;;12885177;22;20023;-68
2023/11/13 23:03:23;;;;;;;17.77;6.75;;;;;;;;;;12886168;22;20345;-68
2023/11/13 23:08:19;;;;;;;22.90;6.85;;;;;;;;;;12885254;22;20027;-68
2023/11/13 23:13:16;;;;;;;21.27;7.50;;;;;;;;;;12885972;22;20077;-69
2023/11/13 23:18:12;;;;;;;21.58;6.97;;;;;;;;;;12884729;22;20022;-68
2023/11/13 23:23:08;;;;;;;20.98;6.57;;;;;;;;;;12885372;22;20217;-69
2023/11/13 23:28:05;;;;;;;24.65;6.55;;;;;;;;;;12885552;22;20242;-69
2023/11/13 23:33:01;;;;;;;19.85;7.35;;;;;;;;;;12885303;22;20103;-68
2023/11/13 23:37:57;;;;;;;18.98;6.28;;;;;;;;;;12885462;22;20110;-69
2023/11/13 23:42:54;;;;;;;19.52;6.00;;;;;;;;;;12884790;22;20019;-68
2023/11/13 23:47:50;;;;;;;18.38;6.85;;;;;;;;;;12879014;22;20091;-69
2023/11/13 23:52:46;;;;;;;19.38;7.10;;;;;;;;;;12884660;22;20490;-69
2023/11/13 23:57:43;;;;;;;28.48;7.65;;;;;;;;;;12884574;22;20491;-71
